sensor_id;sensor_type;location;lat;lon;timestamp;temperature;humidity
1996;DHT22;38556;47.068;15.408;2022-08-19T00:01:40;23.90;99.90
1996;DHT22;38556;47.068;15.408;2022-08-19T00:04:10;24.00;99.90
1996;DHT22;38556;47.068;15.408;2022-08-19T00:06:42;23.90;99.90
1996;DHT22;38556;47.068;15.408;2022-08-19T00:09:11;24.00;99.90
1996;DHT22;38556;47.068;15.408;2022-08-19T00:11:39;24.00;99.90
1996;DHT22;38556;47.068;15.408;2022-08-19T00:14:08;24.00;99.80
1996;DHT22;38556;47.068;15.408;2022-08-19T00:16:36;24.00;99.90
1996;DHT22;38556;47.068;15.408;2022-08-19T00:19:05;24.00;99.90
1996;DHT22;38556;47.068;15.408;2022-08-19T00:21:33;23.90;99.90
1996;DHT22;38556;47.068;15.408;2022-08-19T00:24:08;24.10;99.90
1996;DHT22;38556;47.068;15.408;2022-08-19T00:26:36;24.10;99.90
1996;DHT22;38556;47.068;15.408;2022-08-19T00:29:05;24.10;99.90
1996;DHT22;38556;47.068;15.408;2022-08-19T00:31:33;23.80;99.90
1996;DHT22;38556;47.068;15.408;2022-08-19T00:34:01;23.60;99.90
1996;DHT22;38556;47.068;15.408;2022-08-19T00:36:29;23.60;99.90
1996;DHT22;38556;47.068;15.408;2022-08-19T00:38:57;23.80;99.90
1996;DHT22;38556;47.068;15.408;2022-08-19T00:41:27;23.90;99.90
1996;DHT22;38556;47.068;15.408;2022-08-19T00:43:59;24.00;99.90
1996;DHT22;38556;47.068;15.408;2022-08-19T00:46:28;24.10;99.90
1996;DHT22;38556;47.068;15.408;2022-08-19T00:48:56;24.10;99.90
1996;DHT22;38556;47.068;15.408;2022-08-19T00:51:26;24.00;99.90
1996;DHT22;38556;47.068;15.408;2022-08-19T00:53:55;23.80;99.90
1996;DHT22;38556;47.068;15.408;2022-08-19T00:56:26;23.90;99.90
1996;DHT22;38556;47.068;15.408;2022-08-19T00:58:55;23.90;99.90
1996;DHT22;38556;47.068;15.408;2022-08-19T01:01:23;23.80;99.90
1996;DHT22;38556;47.068;15.408;2022-08-19T01:03:50;24.00;99.90
1996;DHT22;38556;47.068;15.408;2022-08-19T01:06:17;24.00;99.90
1996;DHT22;38556;47.068;15.408;2022-08-19T01:08:45;24.10;99.90
1996;DHT22;38556;47.068;15.408;2022-08-19T01:11:12;24.10;99.90
1996;DHT22;38556;47.068;15.408;2022-08-19T01:13:41;24.00;99.90
1996;DHT22;38556;47.068;15.408;2022-08-19T01:16:10;23.80;99.90
1996;DHT22;38556;47.068;15.408;2022-08-19T01:18:41;23.80;99.90
1996;DHT22;38556;47.068;15.408;2022-08-19T01:21:12;23.80;99.90
1996;DHT22;38556;47.068;15.408;2022-08-19T01:23:44;23.80;99.90
1996;DHT22;38556;47.068;15.408;2022-08-19T01:26:13;23.90;99.90
1996;DHT22;38556;47.068;15.408;2022-08-19T01:28:42;24.00;99.90
1996;DHT22;38556;47.068;15.408;2022-08-19T01:31:14;24.10;99.90
1996;DHT22;38556;47.068;15.408;2022-08-19T01:33:42;24.10;99.90
1996;DHT22;38556;47.068;15.408;2022-08-19T01:36:12;24.10;99.90
1996;DHT22;38556;47.068;15.408;2022-08-19T01:38:42;24.10;99.90
1996;DHT22;38556;47.068;15.408;2022-08-19T01:41:14;24.10;99.90
1996;DHT22;38556;47.068;15.408;2022-08-19T01:43:41;23.90;99.90
1996;DHT22;38556;47.068;15.408;2022-08-19T01:46:09;24.00;99.90
1996;DHT22;38556;47.068;15.408;2022-08-19T01:48:39;24.00;99.90
1996;DHT22;38556;47.068;15.408;2022-08-19T01:51:07;24.00;99.90
1996;DHT22;38556;47.068;15.408;2022-08-19T01:53:35;23.60;99.90
1996;DHT22;38556;47.068;15.408;2022-08-19T01:56:04;23.60;99.90
1996;DHT22;38556;47.068;15.408;2022-08-19T01:58:36;23.70;99.90
1996;DHT22;38556;47.068;15.408;2022-08-19T02:01:05;23.60;99.90
1996;DHT22;38556;47.068;15.408;2022-08-19T02:03:32;23.60;99.90
1996;DHT22;38556;47.068;15.408;2022-08-19T02:06:01;23.70;99.90
1996;DHT22;38556;47.068;15.408;2022-08-19T02:08:32;23.80;99.90
1996;DHT22;38556;47.068;15.408;2022-08-19T02:10:59;23.70;99.90
1996;DHT22;38556;47.068;15.408;2022-08-19T02:13:27;23.80;99.90
1996;DHT22;38556;47.068;15.408;2022-08-19T02:15:56;23.80;99.90
1996;DHT22;38556;47.068;15.408;2022-08-19T02:18:23;23.80;99.90
1996;DHT22;38556;47.068;15.408;2022-08-19T02:20:52;23.80;99.90
1996;DHT22;38556;47.068;15.408;2022-08-19T02:23:20;23.80;99.90
1996;DHT22;38556;47.068;15.408;2022-08-19T02:25:47;23.80;99.90
1996;DHT22;38556;47.068;15.408;2022-08-19T02:28:15;23.80;99.90
1996;DHT22;38556;47.068;15.408;2022-08-19T02:30:42;23.80;99.90
1996;DHT22;38556;47.068;15.408;2022-08-19T02:33:11;23.90;99.90
1996;DHT22;38556;47.068;15.408;2022-08-19T02:35:41;23.80;99.90
1996;DHT22;38556;47.068;15.408;2022-08-19T02:38:09;23.80;99.90
1996;DHT22;38556;47.068;15.408;2022-08-19T02:40:56;23.70;99.90
1996;DHT22;38556;47.068;15.408;2022-08-19T02:43:26;23.70;99.90
1996;DHT22;38556;47.068;15.408;2022-08-19T02:45:53;23.70;99.90
1996;DHT22;38556;47.068;15.408;2022-08-19T02:48:24;23.70;99.90
1996;DHT22;38556;47.068;15.408;2022-08-19T02:50:53;23.60;99.90
1996;DHT22;38556;47.068;15.408;2022-08-19T02:53:23;23.70;99.90
1996;DHT22;38556;47.068;15.408;2022-08-19T02:55:51;23.80;99.90
1996;DHT22;38556;47.068;15.408;2022-08-19T02:58:20;23.80;99.90
1996;DHT22;38556;47.068;15.408;2022-08-19T03:00:51;23.80;99.90
1996;DHT22;38556;47.068;15.408;2022-08-19T03:03:19;23.80;99.90
1996;DHT22;38556;47.068;15.408;2022-08-19T03:05:48;23.80;99.90
1996;DHT22;38556;47.068;15.408;2022-08-19T03:08:15;23.80;99.90
1996;DHT22;38556;47.068;15.408;2022-08-19T03:10:45;23.90;99.90
1996;DHT22;38556;47.068;15.408;2022-08-19T03:13:14;23.90;99.90
1996;DHT22;38556;47.068;15.408;2022-08-19T03:15:43;23.90;99.90
1996;DHT22;38556;47.068;15.408;2022-08-19T03:18:11;24.00;99.90
1996;DHT22;38556;47.068;15.408;2022-08-19T03:20:42;24.00;99.90
1996;DHT22;38556;47.068;15.408;2022-08-19T03:23:12;23.90;99.90
1996;DHT22;38556;47.068;15.408;2022-08-19T03:25:42;24.00;99.90
1996;DHT22;38556;47.068;15.408;2022-08-19T03:28:11;23.90;99.90
1996;DHT22;38556;47.068;15.408;2022-08-19T03:30:38;23.80;99.90
1996;DHT22;38556;47.068;15.408;2022-08-19T03:33:07;23.90;99.90
1996;DHT22;38556;47.068;15.408;2022-08-19T03:35:34;23.90;99.90
1996;DHT22;38556;47.068;15.408;2022-08-19T03:38:03;23.80;99.90
1996;DHT22;38556;47.068;15.408;2022-08-19T03:40:31;23.70;99.90
1996;DHT22;38556;47.068;15.408;2022-08-19T03:43:00;23.80;99.90
1996;DHT22;38556;47.068;15.408;2022-08-19T03:45:28;23.80;99.90
1996;DHT22;38556;47.068;15.408;2022-08-19T03:47:56;23.60;99.90
1996;DHT22;38556;47.068;15.408;2022-08-19T03:52:51;23.70;99.90
1996;DHT22;38556;47.068;15.408;2022-08-19T03:55:19;23.70;99.90
1996;DHT22;38556;47.068;15.408;2022-08-19T03:57:47;23.70;99.90
1996;DHT22;38556;47.068;15.408;2022-08-19T04:00:15;23.30;99.90
1996;DHT22;38556;47.068;15.408;2022-08-19T04:02:43;22.70;99.90
1996;DHT22;38556;47.068;15.408;2022-08-19T04:05:10;22.70;99.90
1996;DHT22;38556;47.068;15.408;2022-08-19T04:07:39;22.00;99.90
1996;DHT22;38556;47.068;15.408;2022-08-19T04:10:07;21.80;99.90
1996;DHT22;38556;47.068;15.408;2022-08-19T04:12:34;21.80;99.90
1996;DHT22;38556;47.068;15.408;2022-08-19T04:15:04;21.80;99.90
1996;DHT22;38556;47.068;15.408;2022-08-19T04:17:32;21.90;99.90
1996;DHT22;38556;47.068;15.408;2022-08-19T04:19:59;22.10;99.90
1996;DHT22;38556;47.068;15.408;2022-08-19T04:22:27;22.20;99.90
1996;DHT22;38556;47.068;15.408;2022-08-19T04:24:54;22.10;99.90
1996;DHT22;38556;47.068;15.408;2022-08-19T04:27:21;22.10;99.90
1996;DHT22;38556;47.068;15.408;2022-08-19T04:29:48;22.10;99.90
1996;DHT22;38556;47.068;15.408;2022-08-19T04:32:17;22.10;99.90
1996;DHT22;38556;47.068;15.408;2022-08-19T04:34:44;22.10;99.90
1996;DHT22;38556;47.068;15.408;2022-08-19T04:37:11;22.20;99.90
1996;DHT22;38556;47.068;15.408;2022-08-19T04:39:39;22.20;99.90
1996;DHT22;38556;47.068;15.408;2022-08-19T04:42:25;22.30;99.90
1996;DHT22;38556;47.068;15.408;2022-08-19T04:45:08;22.30;99.90
1996;DHT22;38556;47.068;15.408;2022-08-19T04:47:39;22.60;99.90
1996;DHT22;38556;47.068;15.408;2022-08-19T04:50:07;22.90;99.90
1996;DHT22;38556;47.068;15.408;2022-08-19T04:52:37;23.20;99.90
1996;DHT22;38556;47.068;15.408;2022-08-19T04:55:09;23.50;99.90
1996;DHT22;38556;47.068;15.408;2022-08-19T04:57:37;23.70;99.90
1996;DHT22;38556;47.068;15.408;2022-08-19T05:00:07;23.70;99.90
1996;DHT22;38556;47.068;15.408;2022-08-19T05:02:34;23.70;99.90
1996;DHT22;38556;47.068;15.408;2022-08-19T05:05:04;23.40;99.90
1996;DHT22;38556;47.068;15.408;2022-08-19T05:07:32;23.30;99.90
1996;DHT22;38556;47.068;15.408;2022-08-19T05:10:00;23.60;99.90
1996;DHT22;38556;47.068;15.408;2022-08-19T05:12:27;23.80;99.90
1996;DHT22;38556;47.068;15.408;2022-08-19T05:14:55;24.00;99.90
1996;DHT22;38556;47.068;15.408;2022-08-19T05:17:23;24.10;99.90
1996;DHT22;38556;47.068;15.408;2022-08-19T05:19:51;24.10;99.90
1996;DHT22;38556;47.068;15.408;2022-08-19T05:22:37;24.10;99.90
1996;DHT22;38556;47.068;15.408;2022-08-19T05:25:07;24.10;99.90
1996;DHT22;38556;47.068;15.408;2022-08-19T05:27:34;24.10;99.90
1996;DHT22;38556;47.068;15.408;2022-08-19T05:30:03;24.10;99.90
1996;DHT22;38556;47.068;15.408;2022-08-19T05:32:31;24.20;99.90
1996;DHT22;38556;47.068;15.408;2022-08-19T05:34:58;24.20;99.90
1996;DHT22;38556;47.068;15.408;2022-08-19T05:37:25;24.20;99.90
1996;DHT22;38556;47.068;15.408;2022-08-19T05:39:54;24.10;99.90
1996;DHT22;38556;47.068;15.408;2022-08-19T05:42:22;24.10;99.90
1996;DHT22;38556;47.068;15.408;2022-08-19T05:44:50;24.00;99.90
1996;DHT22;38556;47.068;15.408;2022-08-19T05:47:18;24.10;99.90
1996;DHT22;38556;47.068;15.408;2022-08-19T05:49:45;24.00;99.90
1996;DHT22;38556;47.068;15.408;2022-08-19T05:52:15;23.80;99.90
1996;DHT22;38556;47.068;15.408;2022-08-19T05:54:42;23.90;99.50
1996;DHT22;38556;47.068;15.408;2022-08-19T05:57:12;23.90;99.90
1996;DHT22;38556;47.068;15.408;2022-08-19T05:59:39;23.80;99.80
1996;DHT22;38556;47.068;15.408;2022-08-19T06:02:08;23.80;99.90
1996;DHT22;38556;47.068;15.408;2022-08-19T06:04:35;24.10;99.80
1996;DHT22;38556;47.068;15.408;2022-08-19T06:07:03;24.10;99.90
1996;DHT22;38556;47.068;15.408;2022-08-19T06:09:30;24.30;99.40
1996;DHT22;38556;47.068;15.408;2022-08-19T06:11:58;24.10;99.70
1996;DHT22;38556;47.068;15.408;2022-08-19T06:14:31;24.30;98.90
1996;DHT22;38556;47.068;15.408;2022-08-19T06:16:59;24.50;99.10
1996;DHT22;38556;47.068;15.408;2022-08-19T06:19:28;24.70;98.60
1996;DHT22;38556;47.068;15.408;2022-08-19T06:21:58;24.80;98.70
1996;DHT22;38556;47.068;15.408;2022-08-19T06:24:27;25.00;98.40
1996;DHT22;38556;47.068;15.408;2022-08-19T06:26:57;24.70;97.80
1996;DHT22;38556;47.068;15.408;2022-08-19T06:29:25;24.50;98.70
1996;DHT22;38556;47.068;15.408;2022-08-19T06:31:56;24.60;98.20
1996;DHT22;38556;47.068;15.408;2022-08-19T06:34:24;24.50;98.10
1996;DHT22;38556;47.068;15.408;2022-08-19T06:36:53;24.70;97.70
1996;DHT22;38556;47.068;15.408;2022-08-19T06:39:24;24.80;97.40
1996;DHT22;38556;47.068;15.408;2022-08-19T06:41:55;25.10;96.90
1996;DHT22;38556;47.068;15.408;2022-08-19T06:44:24;25.20;97.60
1996;DHT22;38556;47.068;15.408;2022-08-19T06:46:55;25.30;97.90
1996;DHT22;38556;47.068;15.408;2022-08-19T06:49:22;25.20;97.80
1996;DHT22;38556;47.068;15.408;2022-08-19T06:51:53;25.00;98.20
1996;DHT22;38556;47.068;15.408;2022-08-19T06:54:22;24.90;98.20
1996;DHT22;38556;47.068;15.408;2022-08-19T06:56:50;25.00;98.50
1996;DHT22;38556;47.068;15.408;2022-08-19T06:59:19;24.80;98.40
1996;DHT22;38556;47.068;15.408;2022-08-19T07:01:49;24.90;98.00
1996;DHT22;38556;47.068;15.408;2022-08-19T07:04:20;24.80;98.30
1996;DHT22;38556;47.068;15.408;2022-08-19T07:06:49;24.70;98.60
1996;DHT22;38556;47.068;15.408;2022-08-19T07:09:18;24.60;99.00
1996;DHT22;38556;47.068;15.408;2022-08-19T07:11:46;24.40;98.90
1996;DHT22;38556;47.068;15.408;2022-08-19T07:14:14;24.30;99.30
1996;DHT22;38556;47.068;15.408;2022-08-19T07:16:44;24.10;99.70
1996;DHT22;38556;47.068;15.408;2022-08-19T07:19:13;24.10;99.50
1996;DHT22;38556;47.068;15.408;2022-08-19T07:21:42;24.10;99.70
1996;DHT22;38556;47.068;15.408;2022-08-19T07:24:09;23.90;99.70
1996;DHT22;38556;47.068;15.408;2022-08-19T07:26:40;23.40;99.90
1996;DHT22;38556;47.068;15.408;2022-08-19T07:29:09;23.30;99.90
1996;DHT22;38556;47.068;15.408;2022-08-19T07:31:38;23.10;99.90
1996;DHT22;38556;47.068;15.408;2022-08-19T07:34:07;23.30;99.90
1996;DHT22;38556;47.068;15.408;2022-08-19T07:36:37;23.40;99.90
1996;DHT22;38556;47.068;15.408;2022-08-19T07:39:11;23.30;99.90
1996;DHT22;38556;47.068;15.408;2022-08-19T07:41:39;23.20;99.90
1996;DHT22;38556;47.068;15.408;2022-08-19T07:44:08;23.20;99.90
1996;DHT22;38556;47.068;15.408;2022-08-19T07:46:40;23.00;99.90
1996;DHT22;38556;47.068;15.408;2022-08-19T07:49:08;22.90;99.90
1996;DHT22;38556;47.068;15.408;2022-08-19T07:51:39;22.70;99.90
1996;DHT22;38556;47.068;15.408;2022-08-19T07:54:08;22.60;99.90
1996;DHT22;38556;47.068;15.408;2022-08-19T07:56:36;22.70;99.90
1996;DHT22;38556;47.068;15.408;2022-08-19T07:59:03;23.00;99.90
1996;DHT22;38556;47.068;15.408;2022-08-19T08:01:31;23.10;99.90
1996;DHT22;38556;47.068;15.408;2022-08-19T08:03:58;23.00;99.90
1996;DHT22;38556;47.068;15.408;2022-08-19T08:06:43;22.90;99.90
1996;DHT22;38556;47.068;15.408;2022-08-19T08:09:32;22.70;99.90
1996;DHT22;38556;47.068;15.408;2022-08-19T08:12:01;22.90;99.90
1996;DHT22;38556;47.068;15.408;2022-08-19T08:14:31;23.00;99.90
1996;DHT22;38556;47.068;15.408;2022-08-19T08:16:59;23.20;99.90
1996;DHT22;38556;47.068;15.408;2022-08-19T08:19:28;23.20;99.90
1996;DHT22;38556;47.068;15.408;2022-08-19T08:21:57;23.30;99.90
1996;DHT22;38556;47.068;15.408;2022-08-19T08:24:26;23.40;99.90
1996;DHT22;38556;47.068;15.408;2022-08-19T08:26:55;23.30;99.90
1996;DHT22;38556;47.068;15.408;2022-08-19T08:29:23;23.20;99.90
1996;DHT22;38556;47.068;15.408;2022-08-19T08:31:51;22.80;99.90
1996;DHT22;38556;47.068;15.408;2022-08-19T08:34:20;22.40;99.90
1996;DHT22;38556;47.068;15.408;2022-08-19T08:36:47;22.50;99.90
1996;DHT22;38556;47.068;15.408;2022-08-19T08:39:19;22.70;99.90
1996;DHT22;38556;47.068;15.408;2022-08-19T08:41:51;22.70;99.90
1996;DHT22;38556;47.068;15.408;2022-08-19T08:44:29;22.70;99.90
1996;DHT22;38556;47.068;15.408;2022-08-19T08:47:02;22.70;99.90
1996;DHT22;38556;47.068;15.408;2022-08-19T08:49:36;22.50;99.90
1996;DHT22;38556;47.068;15.408;2022-08-19T08:52:08;22.40;99.90
1996;DHT22;38556;47.068;15.408;2022-08-19T08:54:39;22.50;99.90
1996;DHT22;38556;47.068;15.408;2022-08-19T08:57:11;22.90;99.90
1996;DHT22;38556;47.068;15.408;2022-08-19T08:59:43;23.20;99.90
1996;DHT22;38556;47.068;15.408;2022-08-19T09:02:12;23.50;99.90
1996;DHT22;38556;47.068;15.408;2022-08-19T09:04:39;23.50;99.90
1996;DHT22;38556;47.068;15.408;2022-08-19T09:07:17;23.70;99.90
1996;DHT22;38556;47.068;15.408;2022-08-19T09:09:51;23.60;99.90
1996;DHT22;38556;47.068;15.408;2022-08-19T09:12:26;23.60;99.90
1996;DHT22;38556;47.068;15.408;2022-08-19T09:15:03;23.60;99.90
1996;DHT22;38556;47.068;15.408;2022-08-19T09:17:32;23.50;99.90
1996;DHT22;38556;47.068;15.408;2022-08-19T09:20:03;23.70;99.90
1996;DHT22;38556;47.068;15.408;2022-08-19T09:22:34;23.70;99.90
1996;DHT22;38556;47.068;15.408;2022-08-19T09:25:03;23.40;99.90
1996;DHT22;38556;47.068;15.408;2022-08-19T09:27:30;23.40;99.90
1996;DHT22;38556;47.068;15.408;2022-08-19T09:29:59;23.00;99.90
1996;DHT22;38556;47.068;15.408;2022-08-19T09:32:27;22.90;99.90
1996;DHT22;38556;47.068;15.408;2022-08-19T09:34:54;22.60;99.90
1996;DHT22;38556;47.068;15.408;2022-08-19T09:37:24;22.30;99.90
1996;DHT22;38556;47.068;15.408;2022-08-19T09:39:51;22.60;99.90
1996;DHT22;38556;47.068;15.408;2022-08-19T09:42:19;22.60;99.90
1996;DHT22;38556;47.068;15.408;2022-08-19T09:44:47;23.30;99.90
1996;DHT22;38556;47.068;15.408;2022-08-19T09:47:16;23.50;99.90
1996;DHT22;38556;47.068;15.408;2022-08-19T09:49:43;23.80;99.90
1996;DHT22;38556;47.068;15.408;2022-08-19T09:52:11;24.00;99.90
1996;DHT22;38556;47.068;15.408;2022-08-19T09:54:38;24.10;99.90
1996;DHT22;38556;47.068;15.408;2022-08-19T09:57:06;24.10;99.90
1996;DHT22;38556;47.068;15.408;2022-08-19T09:59:34;23.20;99.90
1996;DHT22;38556;47.068;15.408;2022-08-19T10:02:01;23.00;99.90
1996;DHT22;38556;47.068;15.408;2022-08-19T10:04:30;23.30;99.90
1996;DHT22;38556;47.068;15.408;2022-08-19T10:07:11;23.40;99.90
1996;DHT22;38556;47.068;15.408;2022-08-19T10:09:38;23.80;99.90
1996;DHT22;38556;47.068;15.408;2022-08-19T10:12:07;24.10;99.90
1996;DHT22;38556;47.068;15.408;2022-08-19T10:14:35;24.30;99.90
1996;DHT22;38556;47.068;15.408;2022-08-19T10:17:03;24.40;99.90
1996;DHT22;38556;47.068;15.408;2022-08-19T10:19:32;24.40;99.90
1996;DHT22;38556;47.068;15.408;2022-08-19T10:22:05;24.60;99.90
1996;DHT22;38556;47.068;15.408;2022-08-19T10:24:34;24.80;99.90
1996;DHT22;38556;47.068;15.408;2022-08-19T10:27:01;25.10;99.90
1996;DHT22;38556;47.068;15.408;2022-08-19T10:29:30;25.20;99.90
1996;DHT22;38556;47.068;15.408;2022-08-19T10:32:00;27.80;99.90
1996;DHT22;38556;47.068;15.408;2022-08-19T10:34:29;25.50;99.90
1996;DHT22;38556;47.068;15.408;2022-08-19T10:36:58;25.60;99.90
1996;DHT22;38556;47.068;15.408;2022-08-19T10:39:27;25.70;99.90
1996;DHT22;38556;47.068;15.408;2022-08-19T10:41:55;25.80;99.90
1996;DHT22;38556;47.068;15.408;2022-08-19T10:44:23;25.80;99.90
1996;DHT22;38556;47.068;15.408;2022-08-19T10:46:52;25.80;99.90
1996;DHT22;38556;47.068;15.408;2022-08-19T10:49:19;26.00;99.90
1996;DHT22;38556;47.068;15.408;2022-08-19T10:51:46;26.10;99.90
1996;DHT22;38556;47.068;15.408;2022-08-19T10:54:33;25.80;99.90
1996;DHT22;38556;47.068;15.408;2022-08-19T10:57:15;25.90;99.90
1996;DHT22;38556;47.068;15.408;2022-08-19T10:59:42;25.80;99.90
1996;DHT22;38556;47.068;15.408;2022-08-19T11:02:10;25.80;99.90
1996;DHT22;38556;47.068;15.408;2022-08-19T11:04:40;24.40;99.90
1996;DHT22;38556;47.068;15.408;2022-08-19T11:07:08;26.00;99.90
1996;DHT22;38556;47.068;15.408;2022-08-19T11:09:40;25.90;99.90
1996;DHT22;38556;47.068;15.408;2022-08-19T11:12:09;26.10;99.90
1996;DHT22;38556;47.068;15.408;2022-08-19T11:14:38;26.00;99.90
1996;DHT22;38556;47.068;15.408;2022-08-19T11:17:05;26.10;99.90
1996;DHT22;38556;47.068;15.408;2022-08-19T11:19:34;26.10;99.90
1996;DHT22;38556;47.068;15.408;2022-08-19T11:22:01;26.30;99.90
1996;DHT22;38556;47.068;15.408;2022-08-19T11:24:30;26.40;99.90
1996;DHT22;38556;47.068;15.408;2022-08-19T11:27:03;26.30;99.90
1996;DHT22;38556;47.068;15.408;2022-08-19T11:29:32;26.30;99.90
1996;DHT22;38556;47.068;15.408;2022-08-19T11:32:02;26.30;99.90
1996;DHT22;38556;47.068;15.408;2022-08-19T11:34:31;26.20;99.90
1996;DHT22;38556;47.068;15.408;2022-08-19T11:36:58;26.30;99.90
1996;DHT22;38556;47.068;15.408;2022-08-19T11:39:28;26.20;99.90
1996;DHT22;38556;47.068;15.408;2022-08-19T11:41:57;26.40;99.90
1996;DHT22;38556;47.068;15.408;2022-08-19T11:44:26;26.40;99.90
1996;DHT22;38556;47.068;15.408;2022-08-19T11:46:56;25.80;99.90
1996;DHT22;38556;47.068;15.408;2022-08-19T11:49:24;26.20;99.90
1996;DHT22;38556;47.068;15.408;2022-08-19T11:51:51;26.40;99.90
1996;DHT22;38556;47.068;15.408;2022-08-19T11:54:19;26.60;99.90
1996;DHT22;38556;47.068;15.408;2022-08-19T11:56:46;26.60;99.90
1996;DHT22;38556;47.068;15.408;2022-08-19T11:59:15;26.50;99.90
1996;DHT22;38556;47.068;15.408;2022-08-19T12:01:44;26.30;99.90
1996;DHT22;38556;47.068;15.408;2022-08-19T12:04:12;26.30;99.90
1996;DHT22;38556;47.068;15.408;2022-08-19T12:06:40;26.40;99.90
1996;DHT22;38556;47.068;15.408;2022-08-19T12:09:09;26.60;99.90
1996;DHT22;38556;47.068;15.408;2022-08-19T12:11:37;26.70;99.90
1996;DHT22;38556;47.068;15.408;2022-08-19T12:14:05;26.80;99.90
1996;DHT22;38556;47.068;15.408;2022-08-19T12:16:33;26.80;99.90
1996;DHT22;38556;47.068;15.408;2022-08-19T12:19:04;26.40;99.90
1996;DHT22;38556;47.068;15.408;2022-08-19T12:21:33;26.60;99.90
1996;DHT22;38556;47.068;15.408;2022-08-19T12:24:02;26.70;99.90
1996;DHT22;38556;47.068;15.408;2022-08-19T12:26:30;26.80;99.90
1996;DHT22;38556;47.068;15.408;2022-08-19T12:28:58;26.90;99.90
1996;DHT22;38556;47.068;15.408;2022-08-19T12:31:26;27.00;99.80
1996;DHT22;38556;47.068;15.408;2022-08-19T12:33:54;27.30;99.90
1996;DHT22;38556;47.068;15.408;2022-08-19T12:36:23;27.30;99.70
1996;DHT22;38556;47.068;15.408;2022-08-19T12:38:51;27.50;98.90
1996;DHT22;38556;47.068;15.408;2022-08-19T12:41:19;27.60;99.00
1996;DHT22;38556;47.068;15.408;2022-08-19T12:43:48;27.70;99.20
1996;DHT22;38556;47.068;15.408;2022-08-19T12:46:16;27.80;97.70
1996;DHT22;38556;47.068;15.408;2022-08-19T12:48:44;27.90;96.20
1996;DHT22;38556;47.068;15.408;2022-08-19T12:51:13;28.10;96.80
1996;DHT22;38556;47.068;15.408;2022-08-19T12:53:43;28.30;95.60
1996;DHT22;38556;47.068;15.408;2022-08-19T12:56:11;28.30;96.20
1996;DHT22;38556;47.068;15.408;2022-08-19T12:58:41;28.20;96.70
1996;DHT22;38556;47.068;15.408;2022-08-19T13:01:10;28.30;96.10
1996;DHT22;38556;47.068;15.408;2022-08-19T13:03:38;28.40;96.30
1996;DHT22;38556;47.068;15.408;2022-08-19T13:06:06;28.70;96.10
1996;DHT22;38556;47.068;15.408;2022-08-19T13:08:34;28.80;95.50
1996;DHT22;38556;47.068;15.408;2022-08-19T13:11:12;28.60;94.80
1996;DHT22;38556;47.068;15.408;2022-08-19T13:13:42;28.60;95.70
1996;DHT22;38556;47.068;15.408;2022-08-19T13:16:10;28.80;95.80
1996;DHT22;38556;47.068;15.408;2022-08-19T13:18:40;28.80;95.20
1996;DHT22;38556;47.068;15.408;2022-08-19T13:21:09;28.40;94.30
1996;DHT22;38556;47.068;15.408;2022-08-19T13:23:37;28.40;94.90
1996;DHT22;38556;47.068;15.408;2022-08-19T13:26:06;28.30;94.90
1996;DHT22;38556;47.068;15.408;2022-08-19T13:28:35;28.30;95.10
1996;DHT22;38556;47.068;15.408;2022-08-19T13:31:22;28.20;94.50
1996;DHT22;38556;47.068;15.408;2022-08-19T13:34:08;28.30;95.10
1996;DHT22;38556;47.068;15.408;2022-08-19T13:36:36;28.30;95.30
1996;DHT22;38556;47.068;15.408;2022-08-19T13:39:05;28.50;95.80
1996;DHT22;38556;47.068;15.408;2022-08-19T13:41:34;28.60;94.80
1996;DHT22;38556;47.068;15.408;2022-08-19T13:44:04;28.70;95.10
1996;DHT22;38556;47.068;15.408;2022-08-19T13:46:32;29.00;94.50
1996;DHT22;38556;47.068;15.408;2022-08-19T13:48:59;29.30;94.20
1996;DHT22;38556;47.068;15.408;2022-08-19T13:51:27;29.40;93.90
1996;DHT22;38556;47.068;15.408;2022-08-19T13:53:54;29.50;93.30
1996;DHT22;38556;47.068;15.408;2022-08-19T13:56:22;29.60;93.80
1996;DHT22;38556;47.068;15.408;2022-08-19T13:58:49;29.60;93.20
1996;DHT22;38556;47.068;15.408;2022-08-19T14:01:21;29.70;92.60
1996;DHT22;38556;47.068;15.408;2022-08-19T14:03:48;29.80;92.80
1996;DHT22;38556;47.068;15.408;2022-08-19T14:06:16;30.00;92.10
1996;DHT22;38556;47.068;15.408;2022-08-19T14:08:44;30.10;92.20
1996;DHT22;38556;47.068;15.408;2022-08-19T14:11:11;30.30;92.30
1996;DHT22;38556;47.068;15.408;2022-08-19T14:13:39;30.40;91.80
1996;DHT22;38556;47.068;15.408;2022-08-19T14:16:07;30.50;92.00
1996;DHT22;38556;47.068;15.408;2022-08-19T14:18:37;30.40;91.70
1996;DHT22;38556;47.068;15.408;2022-08-19T14:21:06;30.20;91.60
1996;DHT22;38556;47.068;15.408;2022-08-19T14:23:34;30.50;91.50
1996;DHT22;38556;47.068;15.408;2022-08-19T14:26:07;30.70;91.00
1996;DHT22;38556;47.068;15.408;2022-08-19T14:28:34;30.70;90.90
1996;DHT22;38556;47.068;15.408;2022-08-19T14:31:02;30.60;90.60
1996;DHT22;38556;47.068;15.408;2022-08-19T14:33:29;30.70;90.90
1996;DHT22;38556;47.068;15.408;2022-08-19T14:35:59;31.10;90.70
1996;DHT22;38556;47.068;15.408;2022-08-19T14:38:27;31.20;90.20
1996;DHT22;38556;47.068;15.408;2022-08-19T14:41:07;31.10;90.30
1996;DHT22;38556;47.068;15.408;2022-08-19T14:43:34;31.40;90.00
1996;DHT22;38556;47.068;15.408;2022-08-19T14:46:02;31.10;89.30
1996;DHT22;38556;47.068;15.408;2022-08-19T14:48:29;31.40;90.10
1996;DHT22;38556;47.068;15.408;2022-08-19T14:50:58;31.60;88.20
1996;DHT22;38556;47.068;15.408;2022-08-19T14:53:25;31.50;88.40
1996;DHT22;38556;47.068;15.408;2022-08-19T14:55:53;31.40;89.50
1996;DHT22;38556;47.068;15.408;2022-08-19T14:58:20;31.50;88.90
1996;DHT22;38556;47.068;15.408;2022-08-19T15:00:48;31.70;90.00
1996;DHT22;38556;47.068;15.408;2022-08-19T15:03:16;31.70;90.10
1996;DHT22;38556;47.068;15.408;2022-08-19T15:05:44;31.30;87.10
1996;DHT22;38556;47.068;15.408;2022-08-19T15:08:13;31.30;89.60
1996;DHT22;38556;47.068;15.408;2022-08-19T15:10:40;31.10;88.20
1996;DHT22;38556;47.068;15.408;2022-08-19T15:13:07;31.00;91.10
1996;DHT22;38556;47.068;15.408;2022-08-19T15:15:36;31.00;89.70
1996;DHT22;38556;47.068;15.408;2022-08-19T15:18:04;30.80;88.80
1996;DHT22;38556;47.068;15.408;2022-08-19T15:20:32;30.50;89.60
1996;DHT22;38556;47.068;15.408;2022-08-19T15:22:59;30.40;90.30
1996;DHT22;38556;47.068;15.408;2022-08-19T15:25:28;30.40;90.80
1996;DHT22;38556;47.068;15.408;2022-08-19T15:27:55;30.60;90.20
1996;DHT22;38556;47.068;15.408;2022-08-19T15:30:25;30.60;90.10
1996;DHT22;38556;47.068;15.408;2022-08-19T15:32:54;30.70;90.20
1996;DHT22;38556;47.068;15.408;2022-08-19T15:35:22;30.50;90.50
1996;DHT22;38556;47.068;15.408;2022-08-19T15:37:50;30.30;90.60
1996;DHT22;38556;47.068;15.408;2022-08-19T15:40:19;30.00;91.10
1996;DHT22;38556;47.068;15.408;2022-08-19T15:42:48;29.70;91.20
1996;DHT22;38556;47.068;15.408;2022-08-19T15:45:17;29.40;91.50